Time;durP1;ratioP1;P1;durP2;ratioP2;P2;SDS_P1;SDS_P2;PMS_P1;PMS_P2;Temp;Humidity;BMP_temperature;BMP_pressure;BME280_temperature;BME280_humidity;BME280_pressure;Samples;Min_cycle;Max_cycle;Signal;HPM_P1;HPM_P2
2023/05/10 00:02:28;;;;;;;6.93;3.80;;;15.10;68.50;;;14.77;49.01;100128.03;5013751;28;20219;-71
2023/05/10 00:05:00;;;;;;;5.43;3.77;;;15.10;69.00;;;14.48;49.92;100139.94;5013495;28;20192;-71
2023/05/10 00:07:32;;;;;;;5.07;3.40;;;14.90;69.50;;;14.43;49.92;100140.53;5013512;28;20195;-71
2023/05/10 00:10:04;;;;;;;6.70;3.93;;;14.80;70.20;;;14.47;50.15;100131.03;5013411;28;20224;-71
2023/05/10 00:12:37;;;;;;;5.53;4.50;;;14.80;70.30;;;14.53;50.59;100118.63;5013454;28;20250;-71
2023/05/10 00:15:11;;;;;;;4.43;3.57;;;14.90;71.30;;;14.57;50.16;100126.09;5013428;28;20217;-71
2023/05/10 00:17:43;;;;;;;8.77;4.30;;;15.00;71.00;;;14.54;50.12;100121.13;5017204;28;20195;-71
2023/05/10 00:20:16;;;;;;;4.83;3.90;;;14.90;70.90;;;14.58;50.47;100105.38;5017322;28;20233;-71
2023/05/10 00:22:49;;;;;;;5.10;3.60;;;14.90;72.60;;;14.56;50.60;100102.88;5016915;28;20652;-71
2023/05/10 00:25:21;;;;;;;4.33;3.67;;;14.90;72.10;;;14.51;50.45;100110.75;5017157;28;20192;-71
2023/05/10 00:27:57;;;;;;;9.10;3.77;;;14.80;72.00;;;14.51;50.54;100110.75;5016790;28;20203;-71
2023/05/10 00:30:29;;;;;;;6.03;3.83;;;14.80;71.90;;;14.55;50.57;100106.63;5017024;28;20346;-71
2023/05/10 00:33:00;;;;;;;5.53;3.80;;;14.90;72.20;;;14.50;51.21;100106.38;5016719;28;20321;-71
2023/05/10 00:35:32;;;;;;;6.30;4.70;;;14.80;72.80;;;14.49;51.40;100096.63;5016518;28;20243;-71
2023/05/10 00:38:04;;;;;;;8.13;4.40;;;14.80;73.20;;;14.53;51.10;100103.28;5016390;28;20668;-71
2023/05/10 00:40:38;;;;;;;4.57;3.90;;;14.80;73.20;;;14.50;51.50;100101.00;5016344;28;20598;-71
2023/05/10 00:43:12;;;;;;;5.90;4.40;;;14.80;73.70;;;14.43;51.73;100102.00;5016611;28;20191;-71
2023/05/10 00:45:45;;;;;;;4.57;4.17;;;14.70;74.30;;;14.42;52.06;100093.09;5016579;28;20192;-71
2023/05/10 00:48:17;;;;;;;5.40;3.70;;;14.70;74.80;;;14.34;52.47;100090.59;5016579;28;20286;-71
2023/05/10 00:50:49;;;;;;;4.97;4.47;;;14.70;75.50;;;14.34;52.42;100087.88;5016114;28;20584;-71
2023/05/10 00:53:22;;;;;;;6.73;4.10;;;14.60;76.00;;;14.33;52.36;100094.25;5016182;28;20192;-71
2023/05/10 00:55:54;;;;;;;5.10;4.60;;;14.60;76.10;;;14.33;52.90;100085.34;5016391;28;20199;-71
2023/05/10 00:58:28;;;;;;;6.03;4.40;;;14.60;76.00;;;14.34;52.88;100082.50;5016367;28;20219;-71
2023/05/10 01:01:02;;;;;;;4.83;4.27;;;14.70;76.40;;;14.26;52.50;100079.94;5016263;28;20239;-70
2023/05/10 01:03:35;;;;;;;5.50;4.33;;;14.60;76.30;;;14.25;52.94;100078.28;5016266;28;20195;-70
2023/05/10 01:06:09;;;;;;;6.87;4.60;;;14.50;76.60;;;14.26;53.14;100081.78;5016260;28;20196;-70
2023/05/10 01:08:41;;;;;;;6.03;3.97;;;14.60;77.10;;;14.10;52.51;100074.91;5016198;28;20206;-70
2023/05/10 01:11:13;;;;;;;4.87;4.20;;;14.40;76.90;;;14.16;53.24;100079.47;5015759;28;20232;-70
2023/05/10 01:13:53;;;;;;;4.47;4.07;;;14.50;77.50;;;14.17;52.76;100073.06;5015836;28;20648;-70
2023/05/10 01:16:25;;;;;;;7.43;3.60;;;14.50;77.20;;;14.09;53.10;100073.22;5015754;28;20196;-70
2023/05/10 01:18:57;;;;;;;4.17;3.77;;;14.40;77.90;;;14.04;53.16;100067.63;5015849;28;20702;-70
2023/05/10 01:21:44;;;;;;;5.37;4.27;;;14.40;77.90;;;13.99;53.73;100064.69;5015648;28;20652;-70
2023/05/10 01:24:54;;;;;;;5.80;4.10;;;14.30;78.30;;;13.91;53.75;100065.66;5015900;28;20198;-70
2023/05/10 01:28:01;;;;;;;7.40;4.47;;;14.20;78.70;;;13.92;53.90;100064.66;4994711;28;20549;-70
2023/05/10 01:31:18;;;;;;;6.90;4.50;;;14.30;79.60;;;13.89;54.15;100072.28;5015708;28;20634;-70
2023/05/10 01:34:00;;;;;;;5.57;4.60;;;14.20;79.50;;;13.86;54.16;100067.31;5015313;28;20692;-70
2023/05/10 01:36:40;;;;;;;5.83;4.07;;;14.20;79.80;;;13.93;53.72;100069.00;5015644;28;20664;-70
2023/05/10 01:39:25;;;;;;;7.80;4.80;;;14.30;79.30;;;13.90;54.75;100069.41;5015451;28;20218;-70
2023/05/10 01:42:05;;;;;;;6.43;4.70;;;14.30;80.10;;;13.79;54.42;100075.34;5015556;28;20202;-70
2023/05/10 01:44:47;;;;;;;5.10;4.57;;;14.20;80.50;;;13.82;54.70;100082.19;5015210;28;20191;-70
2023/05/10 01:47:35;;;;;;;6.73;4.63;;;14.20;81.10;;;13.70;55.46;100080.03;5015444;28;20211;-70
2023/05/10 01:50:16;;;;;;;6.87;4.70;;;14.20;80.80;;;13.79;54.47;100077.19;5015067;28;20227;-70
2023/05/10 01:52:55;;;;;;;5.60;4.80;;;14.10;81.00;;;13.65;54.87;100076.28;5015663;28;20286;-70
2023/05/10 01:55:33;;;;;;;6.60;4.60;;;14.00;81.30;;;13.63;55.27;100071.06;5015354;28;20288;-70
2023/05/10 01:58:10;;;;;;;5.67;4.47;;;14.00;81.90;;;13.50;55.94;100070.16;5015278;28;20198;-70
2023/05/10 02:00:48;;;;;;;8.13;5.10;;;13.90;82.30;;;13.59;55.14;100072.50;5015101;28;20231;-70
2023/05/10 02:03:25;;;;;;;10.93;5.03;;;14.00;82.80;;;13.59;55.83;100077.91;5015152;28;20192;-70
2023/05/10 02:05:59;;;;;;;5.73;4.40;;;14.00;82.70;;;13.41;56.58;100076.69;5015144;28;20242;-70
2023/05/10 02:08:34;;;;;;;5.00;4.57;;;13.90;83.30;;;13.49;55.48;100072.00;5015079;28;20199;-71
2023/05/10 02:11:08;;;;;;;7.93;4.87;;;13.80;83.50;;;13.47;56.37;100076.75;5014662;28;20707;-71
2023/05/10 02:13:44;;;;;;;5.47;4.97;;;13.90;83.80;;;13.51;56.60;100071.81;5014986;28;20191;-71
2023/05/10 02:16:20;;;;;;;7.07;4.93;;;13.80;84.10;;;13.49;56.41;100071.19;5015741;28;20238;-71
2023/05/10 02:18:53;;;;;;;7.80;5.03;;;13.90;83.90;;;13.43;55.86;100070.09;5014829;28;20195;-71
2023/05/10 02:21:28;;;;;;;5.97;5.23;;;13.80;84.10;;;13.49;56.32;100065.81;5014749;28;20567;-71
2023/05/10 02:24:02;;;;;;;6.33;5.10;;;13.90;84.40;;;13.48;55.91;100064.97;5014770;28;20202;-71
2023/05/10 02:26:36;;;;;;;7.20;4.97;;;13.90;84.60;;;13.46;56.29;100067.00;5014402;28;20196;-71
2023/05/10 02:29:12;;;;;;;7.23;4.87;;;13.90;84.70;;;13.48;56.79;100070.34;5014305;28;20702;-71
2023/05/10 02:31:44;;;;;;;6.80;4.90;;;13.90;85.00;;;13.50;56.79;100068.28;5014321;28;20196;-71
2023/05/10 02:34:16;;;;;;;7.13;4.90;;;13.90;84.90;;;13.46;57.24;100067.00;5015103;28;20195;-71
2023/05/10 02:36:50;;;;;;;7.23;4.90;;;13.80;85.40;;;13.45;56.82;100065.38;5014558;28;20188;-71
2023/05/10 02:39:25;;;;;;;6.70;5.07;;;13.80;85.40;;;13.41;57.21;100064.09;5013701;28;20207;-71
2023/05/10 02:42:01;;;;;;;8.03;5.10;;;13.80;85.80;;;13.42;56.67;100071.16;5014478;28;20202;-71
2023/05/10 02:44:37;;;;;;;6.20;5.60;;;13.80;86.80;;;13.38;57.32;100064.50;5014437;28;20191;-71
2023/05/10 02:47:08;;;;;;;5.90;5.30;;;13.70;85.80;;;13.43;57.26;100064.72;5014125;28;20636;-70
2023/05/10 02:49:41;;;;;;;7.03;5.13;;;13.80;86.40;;;13.37;57.31;100060.13;5014303;28;20224;-70
2023/05/10 02:52:22;;;;;;;6.53;5.50;;;13.80;86.50;;;13.31;57.81;100062.75;5014289;28;20192;-70
2023/05/10 02:55:01;;;;;;;5.50;4.97;;;13.70;86.90;;;13.31;58.06;100062.75;5014527;28;20192;-70
2023/05/10 02:57:41;;;;;;;6.63;5.20;;;13.70;87.30;;;13.24;57.57;100051.97;5014206;28;20214;-70
2023/05/10 03:00:15;;;;;;;6.13;5.20;;;13.60;87.40;;;13.22;58.18;100054.00;5013653;28;20609;-70
2023/05/10 03:02:47;;;;;;;5.93;5.33;;;13.60;87.50;;;13.25;57.55;100053.63;5013927;28;20599;-70
2023/05/10 03:05:19;;;;;;;6.63;5.23;;;13.60;87.50;;;13.23;57.52;100052.13;5014042;28;20192;-70
2023/05/10 03:07:53;;;;;;;7.03;5.80;;;13.60;88.00;;;13.23;58.20;100055.66;5014001;28;20195;-70
2023/05/10 03:10:30;;;;;;;6.20;4.97;;;13.70;87.90;;;13.27;57.73;100053.41;5013910;28;20223;-70
2023/05/10 03:13:13;;;;;;;5.93;5.33;;;13.70;87.90;;;13.19;57.68;100059.75;5014001;28;20199;-70
2023/05/10 03:15:58;;;;;;;6.17;5.40;;;13.50;88.30;;;13.13;57.69;100060.53;5013905;28;20265;-70
2023/05/10 03:18:40;;;;;;;7.37;5.77;;;13.50;88.50;;;13.12;57.93;100056.19;5013874;28;20195;-70
2023/05/10 03:21:17;;;;;;;6.00;5.33;;;13.50;88.70;;;13.02;58.59;100055.63;5013710;28;20281;-70
2023/05/10 03:23:59;;;;;;;7.80;5.70;;;13.40;89.00;;;13.02;58.41;100058.31;5013872;28;20245;-70
2023/05/10 03:26:32;;;;;;;9.33;5.60;;;13.40;89.20;;;12.99;58.43;100053.34;5013814;28;20201;-70
2023/05/10 03:29:07;;;;;;;6.67;5.50;;;13.40;89.40;;;12.94;58.08;100051.25;5013635;28;20202;-70
2023/05/10 03:31:39;;;;;;;8.47;5.30;;;13.40;89.30;;;12.92;58.57;100057.81;5013403;28;20207;-70
2023/05/10 03:34:11;;;;;;;7.97;5.60;;;13.30;89.80;;;12.86;58.49;100059.44;5013873;28;20262;-70
2023/05/10 03:36:43;;;;;;;6.60;5.20;;;13.30;90.00;;;12.89;58.56;100052.84;5013621;28;20339;-70
2023/05/10 03:39:16;;;;;;;6.10;5.50;;;13.30;90.00;;;12.98;58.71;100057.06;5013417;28;20204;-70
2023/05/10 03:41:48;;;;;;;5.87;5.27;;;13.40;89.90;;;12.95;58.68;100060.13;5013193;28;20603;-70
2023/05/10 03:44:21;;;;;;;6.77;5.40;;;13.40;90.00;;;12.91;59.32;100066.91;5013178;28;20538;-70
2023/05/10 03:46:53;;;;;;;8.60;5.37;;;13.30;90.30;;;12.85;60.27;100062.28;5013549;28;20200;-70
2023/05/10 03:49:24;;;;;;;11.40;6.37;;;13.30;90.40;;;12.92;59.62;100064.03;5013393;28;20234;-70
2023/05/10 03:51:56;;;;;;;7.40;6.03;;;13.30;90.60;;;12.94;60.09;100061.16;5016475;28;20258;-70
2023/05/10 03:54:29;;;;;;;8.93;5.60;;;13.30;90.90;;;12.96;61.34;100059.09;5017277;28;20606;-70
2023/05/10 03:57:02;;;;;;;6.37;5.77;;;13.30;91.30;;;12.91;61.28;100053.50;5017233;28;20202;-70
2023/05/10 03:59:34;;;;;;;6.73;5.50;;;13.30;91.50;;;12.86;62.15;100051.38;5016982;28;20676;-70
2023/05/10 04:02:06;;;;;;;6.50;5.90;;;13.30;92.00;;;12.87;62.38;100058.41;5017412;28;20188;-70
2023/05/10 04:04:38;;;;;;;8.77;5.50;;;13.30;92.10;;;12.86;62.52;100054.06;5017370;28;20659;-70
2023/05/10 04:07:10;;;;;;;8.37;5.93;;;13.30;92.40;;;12.84;62.14;100049.91;5017350;28;20192;-70
2023/05/10 04:09:43;;;;;;;8.03;6.47;;;13.30;92.30;;;12.80;62.39;100054.00;5017312;28;20223;-70
2023/05/10 04:12:15;;;;;;;8.97;6.10;;;13.20;92.40;;;12.79;61.93;100047.78;5017255;28;20195;-70
2023/05/10 04:14:47;;;;;;;7.20;5.57;;;13.20;92.30;;;12.79;61.75;100053.16;5017192;28;20195;-71
2023/05/10 04:17:19;;;;;;;6.60;5.83;;;13.20;92.40;;;12.84;62.76;100050.75;5017192;28;20195;-71
2023/05/10 04:19:52;;;;;;;7.70;5.57;;;13.30;92.60;;;12.70;62.38;100051.63;5016677;28;20310;-70
2023/05/10 04:22:24;;;;;;;7.43;5.53;;;13.20;92.70;;;12.62;62.88;100055.25;5017221;28;20215;-70
2023/05/10 04:24:57;;;;;;;6.17;5.57;;;13.10;92.80;;;12.60;62.47;100057.28;5017227;28;20314;-70
2023/05/10 04:27:29;;;;;;;7.87;5.80;;;13.10;93.00;;;12.66;63.73;100059.22;5017155;28;20196;-70
2023/05/10 04:30:01;;;;;;;7.73;5.50;;;13.10;93.20;;;12.66;64.14;100059.22;5016774;28;20704;-70
2023/05/10 04:32:33;;;;;;;8.07;5.97;;;13.10;93.40;;;12.56;64.14;100066.75;5016850;28;20220;-70
2023/05/10 04:35:05;;;;;;;8.73;6.23;;;13.10;93.50;;;12.69;63.89;100058.84;5016947;28;20207;-70
2023/05/10 04:37:37;;;;;;;7.80;5.70;;;13.10;93.60;;;12.72;64.40;100060.31;5016961;28;20195;-70
2023/05/10 04:40:14;;;;;;;8.57;5.93;;;13.20;93.80;;;12.76;65.38;100063.44;5016813;28;20231;-70
2023/05/10 04:42:46;;;;;;;6.60;6.00;;;13.20;94.20;;;12.62;65.37;100060.63;5016855;28;20191;-70
2023/05/10 04:45:18;;;;;;;6.73;6.03;;;13.10;94.40;;;12.68;66.51;100067.06;5016559;28;20644;-70
2023/05/10 04:47:50;;;;;;;7.90;6.60;;;13.10;94.90;;;12.71;67.67;100062.16;5016516;28;20558;-70
2023/05/10 04:50:22;;;;;;;6.67;5.90;;;13.10;95.50;;;12.68;67.01;100061.72;5016663;28;20231;-70
2023/05/10 04:52:53;;;;;;;9.93;6.37;;;13.10;95.40;;;12.69;67.54;100064.22;5016718;28;20367;-70
2023/05/10 04:55:27;;;;;;;10.90;6.23;;;13.10;95.80;;;12.69;68.04;100066.91;5016660;28;20562;-70
2023/05/10 04:57:58;;;;;;;7.93;6.33;;;13.10;96.50;;;12.70;68.17;100059.69;5016645;28;20192;-70
2023/05/10 05:00:30;;;;;;;8.37;6.53;;;13.10;96.30;;;12.63;68.77;100064.97;5016106;28;20278;-70
2023/05/10 05:03:02;;;;;;;7.43;6.37;;;13.00;96.60;;;12.64;69.00;100077.38;5016264;28;20196;-70
2023/05/10 05:05:34;;;;;;;8.13;6.83;;;13.10;96.70;;;12.63;69.09;100089.16;5016635;28;20215;-70
2023/05/10 05:08:06;;;;;;;9.20;6.90;;;13.00;97.00;;;12.64;69.88;100088.09;5016337;28;20192;-70
2023/05/10 05:10:39;;;;;;;7.60;6.90;;;13.10;97.20;;;12.64;69.94;100088.09;5016196;28;20242;-71
2023/05/10 05:13:13;;;;;;;9.97;6.80;;;13.10;97.20;;;12.58;70.64;100088.88;5016545;28;20222;-71
2023/05/10 05:15:45;;;;;;;6.83;6.23;;;13.00;97.40;;;12.57;70.32;100089.03;5016256;28;20295;-71
2023/05/10 05:18:17;;;;;;;9.70;6.83;;;13.00;97.50;;;12.53;70.69;100096.69;5016224;28;20188;-71
2023/05/10 05:20:48;;;;;;;8.03;7.13;;;13.00;97.50;;;12.52;69.95;100105.75;5016017;28;20254;-71
2023/05/10 05:23:24;;;;;;;9.83;6.50;;;13.00;97.40;;;12.49;70.49;100114.19;5015823;28;20614;-71
2023/05/10 05:25:58;;;;;;;8.40;7.43;;;12.90;97.80;;;12.35;70.62;100119.56;5016095;28;20210;-71
2023/05/10 05:28:32;;;;;;;9.93;6.97;;;12.80;97.80;;;12.43;70.35;100125.66;5016034;28;20199;-71
2023/05/10 05:31:05;;;;;;;8.13;7.30;;;12.90;97.90;;;12.46;72.62;100122.63;5015913;28;20227;-71
2023/05/10 05:33:37;;;;;;;10.10;7.90;;;12.90;98.80;;;12.47;72.46;100118.88;5015769;28;20219;-71
2023/05/10 05:36:10;;;;;;;8.90;7.27;;;12.90;98.70;;;12.49;72.18;100121.41;5015626;28;20196;-71
2023/05/10 05:38:42;;;;;;;11.43;8.03;;;12.90;98.80;;;12.51;73.09;100125.56;5015836;28;20200;-71
2023/05/10 05:41:15;;;;;;;8.37;7.50;;;13.00;99.00;;;12.52;73.61;100127.22;5015378;28;20235;-71
2023/05/10 05:43:47;;;;;;;9.40;7.57;;;13.00;99.00;;;12.52;73.51;100124.53;5015959;28;20198;-71
2023/05/10 05:46:19;;;;;;;8.87;8.00;;;13.00;99.40;;;12.53;74.83;100131.59;5015404;28;20671;-71
2023/05/10 05:48:51;;;;;;;11.30;7.67;;;13.00;99.70;;;12.51;74.92;100133.59;5015660;28;20215;-71
2023/05/10 05:51:23;;;;;;;8.63;7.63;;;13.00;99.80;;;12.51;74.86;100130.09;5015166;28;20230;-71
2023/05/10 05:53:55;;;;;;;10.10;7.60;;;13.00;99.90;;;12.56;74.87;100138.44;5015587;28;20203;-71
2023/05/10 05:56:28;;;;;;;10.00;8.30;;;13.00;99.90;;;12.52;75.62;100137.97;5015179;28;20195;-71
2023/05/10 05:59:00;;;;;;;10.47;8.80;;;13.00;99.90;;;12.53;76.32;100134.28;5015169;28;20668;-71
2023/05/10 06:01:31;;;;;;;10.53;8.43;;;13.00;99.90;;;12.57;76.23;100140.91;5015329;28;20218;-71
2023/05/10 06:04:03;;;;;;;9.70;8.10;;;13.00;99.90;;;12.52;76.92;100143.34;5015320;28;20192;-71
2023/05/10 06:06:36;;;;;;;13.07;8.93;;;13.00;99.90;;;12.57;76.67;100148.97;5015261;28;20188;-71
2023/05/10 06:09:07;;;;;;;10.37;8.23;;;13.00;99.90;;;12.56;76.11;100158.06;5015177;28;20192;-71
2023/05/10 06:11:40;;;;;;;13.53;8.20;;;13.00;99.90;;;12.58;78.16;100169.44;5015151;28;20187;-71
2023/05/10 06:14:12;;;;;;;10.00;9.00;;;13.00;99.90;;;12.57;78.78;100167.75;5014707;28;20222;-71
2023/05/10 06:16:44;;;;;;;12.50;8.77;;;13.00;99.90;;;12.59;77.85;100162.22;5015129;28;20203;-71
2023/05/10 06:19:16;;;;;;;10.07;9.07;;;13.00;99.90;;;12.62;78.41;100176.09;5015347;28;20199;-71
2023/05/10 06:21:48;;;;;;;10.90;9.27;;;13.00;99.90;;;12.65;79.17;100173.03;5014895;28;20235;-71
2023/05/10 06:24:21;;;;;;;11.13;8.63;;;13.10;99.90;;;12.66;79.31;100177.41;5014958;28;20195;-71
2023/05/10 06:26:54;;;;;;;10.17;9.03;;;13.10;99.90;;;12.69;79.12;100166.28;5014631;28;20607;-71
2023/05/10 06:29:26;;;;;;;10.77;8.43;;;13.10;99.90;;;12.69;79.76;100177.03;5014827;28;20238;-71
2023/05/10 06:32:00;;;;;;;11.17;10.03;;;13.20;99.90;;;12.73;80.55;100176.63;5014733;28;20211;-71
2023/05/10 06:34:32;;;;;;;9.67;8.53;;;13.20;99.90;;;12.73;81.16;100165.91;5014504;28;20198;-71
2023/05/10 06:37:03;;;;;;;9.33;8.43;;;13.20;99.90;;;12.73;80.86;100172.09;5014773;28;20195;-71
2023/05/10 06:39:35;;;;;;;14.57;8.30;;;13.20;99.90;;;12.77;81.80;100172.56;5014703;28;20242;-71
2023/05/10 06:42:09;;;;;;;9.13;8.23;;;13.20;99.90;;;12.79;80.79;100181.25;5014836;28;20211;-71
2023/05/10 06:44:41;;;;;;;9.37;8.20;;;13.30;99.90;;;12.80;80.86;100185.63;5014663;28;20194;-71
2023/05/10 06:47:13;;;;;;;8.00;7.20;;;13.30;99.90;;;12.79;80.93;100184.78;5014275;28;20668;-71
2023/05/10 06:49:45;;;;;;;8.90;8.10;;;13.30;99.90;;;12.80;80.98;100186.44;5014514;28;20235;-71
2023/05/10 06:52:17;;;;;;;9.07;8.27;;;13.30;99.90;;;12.80;82.10;100181.09;5014272;28;20592;-71
2023/05/10 06:54:49;;;;;;;8.40;7.60;;;13.30;99.90;;;12.73;82.42;100188.22;5014421;28;20196;-71
2023/05/10 06:57:22;;;;;;;9.97;8.73;;;13.20;99.90;;;12.75;82.43;100185.31;5014380;28;20199;-71
2023/05/10 07:00:03;;;;;;;9.23;8.33;;;13.20;99.90;;;12.68;84.62;100186.09;5014325;28;20266;-71
2023/05/10 07:02:35;;;;;;;10.37;8.50;;;13.20;99.90;;;12.56;84.42;100187.59;5014223;28;20226;-71
2023/05/10 07:05:08;;;;;;;8.90;7.90;;;13.10;99.90;;;12.64;84.40;100195.53;5014228;28;20203;-71
2023/05/10 07:07:40;;;;;;;9.00;8.10;;;13.10;99.90;;;12.70;84.32;100194.78;5014245;28;20196;-71
2023/05/10 07:10:14;;;;;;;8.87;8.10;;;13.20;99.90;;;12.70;84.17;100199.34;5014356;28;20234;-70
2023/05/10 07:12:47;;;;;;;8.90;7.30;;;13.20;99.90;;;12.73;84.06;100198.13;5014124;28;20195;-70
2023/05/10 07:15:19;;;;;;;8.63;7.77;;;13.20;99.90;;;12.76;83.91;100197.75;5014110;28;20202;-70
2023/05/10 07:17:51;;;;;;;8.23;7.37;;;13.30;99.90;;;12.78;84.58;100206.44;5014676;28;20198;-71
2023/05/10 07:20:24;;;;;;;9.80;7.97;;;13.30;99.90;;;12.79;84.35;100208.94;5013950;28;20230;-70
2023/05/10 07:22:55;;;;;;;8.93;8.13;;;13.20;99.90;;;12.82;84.19;100207.75;5013934;28;20212;-70
2023/05/10 07:25:27;;;;;;;10.93;8.23;;;13.30;99.90;;;12.85;84.53;100212.72;5013971;28;20195;-70
2023/05/10 07:28:00;;;;;;;8.80;8.00;;;13.30;99.90;;;12.89;85.21;100216.72;5013933;28;20192;-70
2023/05/10 07:30:32;;;;;;;7.63;6.57;;;13.40;99.90;;;12.91;83.80;100217.38;5013840;28;20252;-71
2023/05/10 07:33:04;;;;;;;8.43;7.67;;;13.40;99.90;;;12.95;84.28;100216.78;5013488;28;20254;-71
2023/05/10 07:35:36;;;;;;;8.33;7.53;;;13.40;99.90;;;12.98;84.45;100223.66;5013897;28;20207;-71
2023/05/10 07:38:08;;;;;;;9.10;8.20;;;13.40;99.90;;;12.99;85.32;100223.47;5013803;28;20202;-71
2023/05/10 07:40:40;;;;;;;8.83;7.93;;;13.50;99.90;;;13.03;84.38;100221.22;5013508;28;20703;-71
2023/05/10 07:43:13;;;;;;;9.67;8.27;;;13.50;99.90;;;13.02;85.37;100222.25;5013799;28;20207;-71
2023/05/10 07:45:46;;;;;;;8.57;7.67;;;13.50;99.90;;;13.03;85.97;100222.06;5013760;28;20196;-71
2023/05/10 07:48:20;;;;;;;9.83;8.43;;;13.50;99.90;;;13.01;87.08;100225.97;5013418;28;20195;-71
2023/05/10 07:50:52;;;;;;;10.60;7.83;;;13.50;99.90;;;13.02;86.46;100224.94;5013609;28;20281;-71
2023/05/10 07:53:27;;;;;;;9.00;7.93;;;13.50;99.90;;;13.08;86.53;100225.00;5013347;28;20191;-72
2023/05/10 07:56:00;;;;;;;9.17;8.33;;;13.60;99.90;;;13.08;88.34;100225.00;5014058;28;20624;-72
2023/05/10 07:58:33;;;;;;;6.77;6.07;;;13.60;99.90;;;13.08;87.04;100229.56;5013066;28;20644;-71
2023/05/10 08:01:06;;;;;;;13.03;8.73;;;13.60;99.90;;;13.07;87.34;100238.66;5013386;28;20242;-71
2023/05/10 08:03:38;;;;;;;8.43;7.53;;;13.50;99.90;;;12.93;88.45;100234.13;5013533;28;20216;-71
2023/05/10 08:06:10;;;;;;;8.70;7.80;;;13.50;99.90;;;12.97;88.80;100235.44;5013484;28;20286;-71
2023/05/10 08:08:45;;;;;;;8.53;7.63;;;13.50;99.90;;;12.92;89.07;100246.72;5013563;28;20282;-71
2023/05/10 08:11:17;;;;;;;9.17;8.23;;;13.40;99.90;;;12.94;89.83;100249.25;5013456;28;20316;-71
2023/05/10 08:13:51;;;;;;;8.07;7.23;;;13.40;99.90;;;12.98;89.13;100250.53;5013543;28;20231;-71
2023/05/10 08:16:26;;;;;;;9.77;7.73;;;13.50;99.90;;;12.96;90.26;100263.31;5013522;28;20191;-71
2023/05/10 08:18:57;;;;;;;8.77;7.83;;;13.50;99.90;;;13.00;89.73;100259.22;5013446;28;20195;-71
2023/05/10 08:21:31;;;;;;;9.17;8.17;;;13.50;99.90;;;12.95;90.65;100256.25;5013494;28;20199;-71
2023/05/10 08:24:02;;;;;;;9.17;8.33;;;13.50;99.90;;;12.96;91.10;100274.06;5013373;28;20215;-71
2023/05/10 08:26:36;;;;;;;9.80;8.77;;;13.50;99.90;;;12.99;91.24;100268.31;5013402;28;20191;-71
2023/05/10 08:29:09;;;;;;;9.37;8.17;;;13.50;99.90;;;13.02;91.76;100276.81;5013285;28;20192;-72
2023/05/10 08:31:41;;;;;;;9.17;8.27;;;13.50;99.90;;;12.93;92.76;100275.28;5013666;28;20198;-71
2023/05/10 08:34:13;;;;;;;11.23;9.17;;;13.50;99.90;;;12.95;93.27;100278.59;5013025;28;20226;-71
2023/05/10 08:36:45;;;;;;;8.73;7.83;;;13.50;99.90;;;12.92;92.41;100278.13;5014505;28;20282;-71
2023/05/10 08:39:18;;;;;;;9.13;8.20;;;13.40;99.90;;;12.92;93.81;100286.19;5017169;28;20195;-72
2023/05/10 08:42:05;;;;;;;11.53;8.50;;;13.40;99.90;;;12.96;93.88;100290.19;5016959;28;20278;-70
2023/05/10 08:44:39;;;;;;;9.90;8.10;;;13.40;99.90;;;12.96;94.73;100290.19;5016959;28;20202;-70
2023/05/10 08:47:12;;;;;;;9.93;8.40;;;13.50;99.90;;;12.98;94.54;100290.84;5016877;28;20196;-70
2023/05/10 08:49:50;;;;;;;7.80;7.10;;;13.50;99.90;;;13.01;93.82;100293.97;5016701;28;20310;-70
2023/05/10 08:52:27;;;;;;;9.53;7.20;;;13.50;99.90;;;13.02;94.05;100295.63;5016745;28;20195;-70
2023/05/10 08:55:01;;;;;;;8.83;7.10;;;13.50;99.90;;;13.07;94.47;100303.16;5016577;28;20566;-70
2023/05/10 08:57:36;;;;;;;7.10;6.40;;;13.60;99.90;;;13.13;94.46;100302.44;5016836;28;20200;-70
2023/05/10 09:00:13;;;;;;;6.60;6.00;;;13.60;99.90;;;13.22;93.56;100306.66;5016458;28;20230;-70
2023/05/10 09:02:46;;;;;;;7.60;6.13;;;13.70;99.90;;;13.31;94.82;100304.72;5016489;28;20230;-70
2023/05/10 09:05:20;;;;;;;6.10;5.53;;;13.80;99.90;;;13.33;94.24;100311.56;5016394;28;20206;-70
2023/05/10 09:07:53;;;;;;;6.53;5.90;;;13.80;99.90;;;13.40;94.29;100314.34;5016419;28;20191;-70
2023/05/10 09:10:28;;;;;;;5.53;5.03;;;13.90;99.90;;;13.42;93.30;100317.69;5016343;28;20234;-71
2023/05/10 09:13:03;;;;;;;4.90;4.40;;;13.90;99.90;;;13.45;92.72;100330.75;5016264;28;20194;-71
2023/05/10 09:15:36;;;;;;;6.13;5.07;;;14.00;99.90;;;13.50;93.14;100331.00;5015973;28;20198;-71
2023/05/10 09:18:09;;;;;;;4.37;3.97;;;14.00;99.90;;;13.51;92.38;100335.38;5016475;28;20196;-71
2023/05/10 09:20:42;;;;;;;5.03;4.27;;;14.00;99.90;;;13.56;92.23;100333.75;5015838;28;20581;-71
2023/05/10 09:23:13;;;;;;;5.23;4.47;;;14.10;99.90;;;13.58;92.74;100337.13;5016036;28;20215;-71
2023/05/10 09:25:46;;;;;;;3.67;3.33;;;14.10;99.90;;;13.59;91.57;100341.50;5016216;28;20195;-71
2023/05/10 09:28:20;;;;;;;3.17;2.87;;;14.10;99.90;;;13.62;91.82;100346.47;5015078;28;20652;-71
2023/05/10 09:30:57;;;;;;;4.10;3.70;;;14.20;99.90;;;13.62;92.33;100349.19;5015689;28;20238;-71
2023/05/10 09:33:44;;;;;;;4.50;3.33;;;14.10;99.90;;;13.63;91.94;100353.50;5015766;28;20286;-71
2023/05/10 09:36:18;;;;;;;4.97;4.13;;;14.20;99.90;;;13.62;92.18;100351.88;5016003;28;20227;-71
2023/05/10 09:38:52;;;;;;;3.90;3.60;;;14.10;99.90;;;13.61;92.72;100360.09;5015594;28;20553;-71
2023/05/10 09:41:26;;;;;;;4.80;4.40;;;14.10;99.90;;;13.53;92.86;100358.34;5015617;28;20231;-72
2023/05/10 09:44:00;;;;;;;3.77;3.47;;;14.10;99.90;;;13.50;92.58;100366.81;5015675;28;20242;-72
2023/05/10 09:46:37;;;;;;;3.73;3.20;;;14.00;99.90;;;13.44;91.74;100372.94;5015791;28;20196;-72
2023/05/10 09:49:15;;;;;;;3.37;3.07;;;13.90;99.90;;;13.43;91.48;100368.56;5014225;28;20616;-72
2023/05/10 09:51:46;;;;;;;3.53;3.23;;;14.00;99.90;;;13.40;91.87;100374.34;5015589;28;20192;-72
2023/05/10 09:54:20;;;;;;;4.83;3.20;;;13.90;99.90;;;13.43;91.47;100376.66;5015579;28;20203;-72
2023/05/10 09:56:52;;;;;;;3.97;3.67;;;13.90;99.90;;;13.44;91.86;100394.44;5015542;28;20196;-72
2023/05/10 09:59:25;;;;;;;4.37;3.70;;;13.90;99.90;;;13.38;91.35;100386.31;5015459;28;20868;-72
2023/05/10 10:02:01;;;;;;;4.57;4.17;;;13.90;99.90;;;13.37;91.35;100398.06;5015414;28;20203;-72
2023/05/10 10:04:39;;;;;;;4.53;4.13;;;13.90;99.90;;;13.31;89.59;100396.97;5015291;28;20211;-72
2023/05/10 10:07:11;;;;;;;4.23;3.83;;;13.80;99.90;;;13.36;91.26;100397.22;5015853;28;20226;-72
2023/05/10 10:09:43;;;;;;;4.40;4.00;;;13.90;99.90;;;13.33;90.88;100396.78;5015144;28;20231;-72
2023/05/10 10:12:15;;;;;;;5.93;3.70;;;13.80;99.90;;;13.42;90.91;100399.19;5014919;28;20671;-72
2023/05/10 10:14:54;;;;;;;5.03;4.53;;;13.90;99.90;;;13.46;91.00;100400.47;5015226;28;20235;-72
2023/05/10 10:17:31;;;;;;;4.63;4.13;;;13.90;99.90;;;13.52;90.62;100405.13;5015096;28;20258;-72
2023/05/10 10:20:06;;;;;;;5.43;4.37;;;14.00;99.90;;;13.58;90.16;100408.91;5014704;28;20750;-72
2023/05/10 10:22:44;;;;;;;5.83;4.50;;;14.10;99.90;;;13.60;90.16;100412.22;5015058;28;20230;-72
2023/05/10 10:25:21;;;;;;;6.47;4.50;;;14.10;99.90;;;13.66;90.16;100412.31;5015659;28;20210;-72
2023/05/10 10:28:11;;;;;;;4.70;4.20;;;14.20;99.90;;;13.70;89.30;100416.28;5014927;28;20192;-72
2023/05/10 10:30:51;;;;;;;4.80;4.30;;;14.20;99.90;;;13.75;89.69;100414.91;5014787;28;20589;-72
2023/05/10 10:33:43;;;;;;;5.43;4.60;;;14.20;99.90;;;13.81;89.04;100414.13;5014636;28;20211;-73
2023/05/10 10:36:19;;;;;;;4.90;4.30;;;14.30;99.90;;;13.82;89.33;100419.34;5014457;28;20580;-72
2023/05/10 10:39:09;;;;;;;6.23;4.30;;;14.30;99.90;;;13.84;89.49;100414.59;5014437;28;20200;-72
2023/05/10 10:41:50;;;;;;;5.37;4.60;;;14.30;99.90;;;13.83;89.88;100417.50;5014688;28;20196;-73
2023/05/10 10:44:37;;;;;;;5.27;4.77;;;14.30;99.90;;;13.86;90.23;100419.81;5014246;28;20208;-73